Time,TemperatureF,DewpointF,PressureIn,WindDirection,WindDirectionDegrees,WindSpeedMPH,WindSpeedGustMPH,Humidity,HourlyPrecipIn,Conditions,Clouds,dailyrainin,SoftwareType,DateUTC
2013-03-30 00:03:00,43.0,-99.9,-100.00,NE,38,3.0,4.0,-999,0.00,,,0.00,,2013-03-30 05:03:00,
2013-03-30 00:12:00,43.0,-99.9,-100.00,NE,38,3.0,4.0,-999,0.00,,,0.00,,2013-03-30 05:12:00,
2013-03-30 00:22:00,43.0,-99.9,-100.00,NE,38,3.0,4.0,-999,0.00,,,0.00,,2013-03-30 05:22:00,
2013-03-30 00:32:00,44.0,-99.9,-100.00,NNE,29,4.0,5.0,-999,0.00,,,0.00,,2013-03-30 05:32:00,
2013-03-30 00:42:00,44.0,-99.9,-100.00,NNE,29,4.0,5.0,-999,0.00,,,0.00,,2013-03-30 05:42:00,
2013-03-30 00:52:00,44.0,-99.9,-100.00,NNE,29,4.0,5.0,-999,0.00,,,0.00,,2013-03-30 05:52:00,
2013-03-30 01:02:00,44.0,-99.9,-100.00,West,276,1.0,3.0,-999,0.00,,,0.00,,2013-03-30 06:02:00,
2013-03-30 01:12:00,44.0,-99.9,-100.00,West,276,1.0,3.0,-999,0.00,,,0.00,,2013-03-30 06:12:00,
2013-03-30 01:23:00,44.0,-99.9,-100.00,West,276,1.0,3.0,-999,0.00,,,0.00,,2013-03-30 06:23:00,
2013-03-30 01:30:00,43.0,-99.9,-100.00,East,100,4.0,6.0,-999,0.00,,,0.00,,2013-03-30 06:30:00,
2013-03-30 01:32:00,44.0,-99.9,-100.00,NNE,17,1.0,2.0,-999,0.00,,,0.00,,2013-03-30 06:32:00,
2013-03-30 01:42:00,44.0,-99.9,-100.00,NNE,17,1.0,2.0,-999,0.00,,,0.00,,2013-03-30 06:42:00,
2013-03-30 01:52:00,44.0,-99.9,-100.00,NNE,17,1.0,2.0,-999,0.00,,,0.00,,2013-03-30 06:52:00,
2013-03-30 02:02:00,43.0,-99.9,-100.00,East,100,4.0,6.0,-999,0.00,,,0.00,,2013-03-30 07:02:00,
2013-03-30 02:12:00,43.0,-99.9,-100.00,East,100,4.0,6.0,-999,0.00,,,0.00,,2013-03-30 07:12:00,
2013-03-30 02:22:00,43.0,-99.9,-100.00,East,100,4.0,6.0,-999,0.00,,,0.00,,2013-03-30 07:22:00,
2013-03-30 03:02:00,43.0,-99.9,-100.00,ENE,61,3.0,4.0,-999,0.00,,,0.00,,2013-03-30 08:02:00,
2013-03-30 03:12:00,43.0,-99.9,-100.00,ENE,61,3.0,4.0,-999,0.00,,,0.00,,2013-03-30 08:12:00,
2013-03-30 03:22:00,43.0,-99.9,-100.00,ENE,61,3.0,4.0,-999,0.00,,,0.00,,2013-03-30 08:22:00,
2013-03-30 03:30:00,41.0,-99.9,-100.00,ENE,78,2.0,4.0,-999,0.00,,,0.00,,2013-03-30 08:30:00,
2013-03-30 03:32:00,42.0,-99.9,-100.00,East,96,2.0,3.0,-999,0.00,,,0.00,,2013-03-30 08:32:00,
2013-03-30 03:42:00,42.0,-99.9,-100.00,East,96,2.0,3.0,-999,0.00,,,0.00,,2013-03-30 08:42:00,
2013-03-30 03:53:00,42.0,-99.9,-100.00,East,96,2.0,3.0,-999,0.00,,,0.00,,2013-03-30 08:53:00,
2013-03-30 04:03:00,41.0,-99.9,-100.00,ENE,78,2.0,4.0,-999,0.00,,,0.00,,2013-03-30 09:03:00,
2013-03-30 04:13:00,41.0,-99.9,-100.00,ENE,78,2.0,4.0,-999,0.00,,,0.00,,2013-03-30 09:13:00,
2013-03-30 04:23:00,41.0,-99.9,-100.00,ENE,78,2.0,4.0,-999,0.00,,,0.00,,2013-03-30 09:23:00,
2013-03-30 05:03:00,39.0,-99.9,-100.00,SSE,153,0.0,1.0,-999,0.00,,,0.00,,2013-03-30 10:03:00,
2013-03-30 05:13:00,39.0,-99.9,-100.00,SSE,153,0.0,1.0,-999,0.00,,,0.00,,2013-03-30 10:13:00,
2013-03-30 05:23:00,39.0,-99.9,-100.00,SSE,153,0.0,1.0,-999,0.00,,,0.00,,2013-03-30 10:23:00,
2013-03-30 05:33:00,39.0,-99.9,-100.00,ESE,111,2.0,4.0,-999,0.00,,,0.00,,2013-03-30 10:33:00,
2013-03-30 05:42:00,39.0,-99.9,-100.00,ESE,111,2.0,4.0,-999,0.00,,,0.00,,2013-03-30 10:42:00,
2013-03-30 05:53:00,39.0,-99.9,-100.00,ESE,111,2.0,4.0,-999,0.00,,,0.00,,2013-03-30 10:53:00,
2013-03-30 06:04:00,40.0,-99.9,-100.00,ENE,76,2.0,3.0,-999,0.00,,,0.00,,2013-03-30 11:04:00,
2013-03-30 06:13:00,40.0,-99.9,-100.00,ENE,76,2.0,3.0,-999,0.00,,,0.00,,2013-03-30 11:13:00,
2013-03-30 06:23:00,40.0,-99.9,-100.00,ENE,76,2.0,3.0,-999,0.00,,,0.00,,2013-03-30 11:23:00,
2013-03-30 06:33:00,41.0,-99.9,-100.00,SSE,152,2.0,3.0,-999,0.00,,,0.00,,2013-03-30 11:33:00,
2013-03-30 06:43:00,41.0,-99.9,-100.00,SSE,152,2.0,3.0,-999,0.00,,,0.00,,2013-03-30 11:43:00,
2013-03-30 06:53:00,41.0,-99.9,-100.00,SSE,152,2.0,3.0,-999,0.00,,,0.00,,2013-03-30 11:53:00,
2013-03-30 07:03:00,41.0,-99.9,-100.00,South,183,2.0,3.0,-999,0.00,,,0.00,,2013-03-30 12:03:00,
2013-03-30 07:13:00,41.0,-99.9,-100.00,South,183,2.0,3.0,-999,0.00,,,0.00,,2013-03-30 12:13:00,
2013-03-30 07:23:00,41.0,-99.9,-100.00,South,183,2.0,3.0,-999,0.00,,,0.00,,2013-03-30 12:23:00,
2013-03-30 07:33:00,41.0,-99.9,-100.00,SW,218,0.0,1.0,-999,0.00,,,0.00,,2013-03-30 12:33:00,
2013-03-30 07:43:00,41.0,-99.9,-100.00,SW,218,0.0,1.0,-999,0.00,,,0.00,,2013-03-30 12:43:00,
2013-03-30 07:54:00,41.0,-99.9,-100.00,SW,218,0.0,1.0,-999,0.00,,,0.00,,2013-03-30 12:54:00,
2013-03-30 08:03:00,41.0,-99.9,-100.00,South,180,3.0,4.0,-999,0.00,,,0.00,,2013-03-30 13:03:00,
2013-03-30 08:12:00,41.0,-99.9,-100.00,South,180,3.0,4.0,-999,0.00,,,0.00,,2013-03-30 13:12:00,
2013-03-30 08:23:00,41.0,-99.9,-100.00,South,180,3.0,4.0,-999,0.00,,,0.00,,2013-03-30 13:23:00,
2013-03-30 08:32:00,42.0,-99.9,-100.00,SSE,161,5.0,6.0,-999,0.00,,,0.00,,2013-03-30 13:32:00,
2013-03-30 08:43:00,42.0,-99.9,-100.00,SSE,161,5.0,6.0,-999,0.00,,,0.00,,2013-03-30 13:43:00,
2013-03-30 08:53:00,42.0,-99.9,-100.00,SSE,161,5.0,6.0,-999,0.00,,,0.00,,2013-03-30 13:53:00,
2013-03-30 09:03:00,43.0,-99.9,-100.00,SSE,148,3.0,5.0,-999,0.00,,,0.00,,2013-03-30 14:03:00,
2013-03-30 09:12:00,43.0,-99.9,-100.00,SSE,148,3.0,5.0,-999,0.00,,,0.00,,2013-03-30 14:12:00,
2013-03-30 09:23:00,43.0,-99.9,-100.00,SSE,148,3.0,5.0,-999,0.00,,,0.00,,2013-03-30 14:23:00,
2013-03-30 09:33:00,44.0,-99.9,-100.00,SSE,147,4.0,6.0,-999,0.00,,,0.00,,2013-03-30 14:33:00,
2013-03-30 09:43:00,44.0,-99.9,-100.00,SSE,147,4.0,6.0,-999,0.00,,,0.00,,2013-03-30 14:43:00,
2013-03-30 09:53:00,44.0,-99.9,-100.00,SSE,147,4.0,6.0,-999,0.00,,,0.00,,2013-03-30 14:53:00,
2013-03-30 10:03:00,45.0,-99.9,-100.00,South,177,5.0,8.0,-999,0.00,,,0.00,,2013-03-30 15:03:00,
2013-03-30 10:13:00,45.0,-99.9,-100.00,South,177,5.0,8.0,-999,0.00,,,0.00,,2013-03-30 15:13:00,
2013-03-30 10:23:00,45.0,-99.9,-100.00,South,177,5.0,8.0,-999,0.00,,,0.00,,2013-03-30 15:23:00,
2013-03-30 10:34:00,47.0,-99.9,-100.00,SSE,165,6.0,7.0,-999,0.00,,,0.00,,2013-03-30 15:34:00,
2013-03-30 10:43:00,47.0,-99.9,-100.00,SSE,165,6.0,7.0,-999,0.00,,,0.00,,2013-03-30 15:43:00,
2013-03-30 10:53:00,47.0,-99.9,-100.00,SSE,165,6.0,7.0,-999,0.00,,,0.00,,2013-03-30 15:53:00,
2013-03-30 11:04:00,48.0,-99.9,-100.00,SSE,164,6.0,8.0,-999,0.00,,,0.00,,2013-03-30 16:04:00,
2013-03-30 11:13:00,48.0,-99.9,-100.00,SSE,164,6.0,8.0,-999,0.00,,,0.00,,2013-03-30 16:13:00,
2013-03-30 11:23:00,48.0,-99.9,-100.00,SSE,164,6.0,8.0,-999,0.00,,,0.00,,2013-03-30 16:23:00,
2013-03-30 11:33:00,50.0,-99.9,-100.00,South,174,9.0,12.0,-999,0.00,,,0.00,,2013-03-30 16:33:00,
2013-03-30 11:43:00,50.0,-99.9,-100.00,South,174,9.0,12.0,-999,0.00,,,0.00,,2013-03-30 16:43:00,
2013-03-30 11:53:00,50.0,-99.9,-100.00,South,174,9.0,12.0,-999,0.00,,,0.00,,2013-03-30 16:53:00,
2013-03-30 12:03:00,52.0,-99.9,-100.00,South,176,13.0,16.0,-999,0.00,,,0.00,,2013-03-30 17:03:00,
2013-03-30 12:13:00,52.0,-99.9,-100.00,South,176,13.0,16.0,-999,0.00,,,0.00,,2013-03-30 17:13:00,
2013-03-30 12:23:00,52.0,-99.9,-100.00,South,176,13.0,16.0,-999,0.00,,,0.00,,2013-03-30 17:23:00,
2013-03-30 12:33:00,54.0,-99.9,-100.00,South,172,12.0,15.0,-999,0.00,,,0.00,,2013-03-30 17:33:00,
2013-03-30 12:43:00,54.0,-99.9,-100.00,South,172,12.0,15.0,-999,0.00,,,0.00,,2013-03-30 17:43:00,
2013-03-30 12:53:00,54.0,-99.9,-100.00,South,172,12.0,15.0,-999,0.00,,,0.00,,2013-03-30 17:53:00,
2013-03-30 13:03:00,54.0,-99.9,-100.00,South,178,11.0,16.0,-999,0.00,,,0.00,,2013-03-30 18:03:00,
2013-03-30 13:13:00,54.0,-99.9,-100.00,South,178,11.0,16.0,-999,0.00,,,0.00,,2013-03-30 18:13:00,
2013-03-30 13:22:00,54.0,-99.9,-100.00,South,178,11.0,16.0,-999,0.00,,,0.00,,2013-03-30 18:22:00,
2013-03-30 13:30:00,54.0,-99.9,-100.00,South,177,11.0,16.0,-999,0.00,,,0.00,,2013-03-30 18:30:00,
2013-03-30 13:33:00,54.0,-99.9,-100.00,South,174,13.0,16.0,-999,0.00,,,0.00,,2013-03-30 18:33:00,
2013-03-30 13:43:00,54.0,-99.9,-100.00,South,174,13.0,16.0,-999,0.00,,,0.00,,2013-03-30 18:43:00,
2013-03-30 13:53:00,54.0,-99.9,-100.00,South,174,13.0,16.0,-999,0.00,,,0.00,,2013-03-30 18:53:00,
2013-03-30 14:03:00,54.0,-99.9,-100.00,South,177,11.0,16.0,-999,0.00,,,0.00,,2013-03-30 19:03:00,
2013-03-30 14:13:00,54.0,-99.9,-100.00,South,177,11.0,16.0,-999,0.00,,,0.00,,2013-03-30 19:13:00,
2013-03-30 14:22:00,54.0,-99.9,-100.00,South,177,11.0,16.0,-999,0.00,,,0.00,,2013-03-30 19:22:00,
2013-03-30 15:02:00,54.0,-99.9,-100.00,SSW,197,8.0,12.0,-999,0.00,,,0.00,,2013-03-30 20:02:00,
2013-03-30 15:12:00,54.0,-99.9,-100.00,SSW,197,8.0,12.0,-999,0.00,,,0.00,,2013-03-30 20:12:00,
2013-03-30 15:22:00,54.0,-99.9,-100.00,SSW,197,8.0,12.0,-999,0.00,,,0.00,,2013-03-30 20:22:00,
2013-03-30 15:33:00,53.0,-99.9,-100.00,South,171,10.0,12.0,-999,0.00,,,0.00,,2013-03-30 20:33:00,
2013-03-30 15:43:00,53.0,-99.9,-100.00,South,171,10.0,12.0,-999,0.00,,,0.00,,2013-03-30 20:43:00,
2013-03-30 15:53:00,53.0,-99.9,-100.00,South,171,10.0,12.0,-999,0.00,,,0.00,,2013-03-30 20:53:00,
2013-03-30 16:03:00,53.0,-99.9,-100.00,South,183,9.0,11.0,-999,0.00,,,0.00,,2013-03-30 21:03:00,
2013-03-30 16:13:00,53.0,-99.9,-100.00,South,183,9.0,11.0,-999,0.00,,,0.00,,2013-03-30 21:13:00,
2013-03-30 16:23:00,53.0,-99.9,-100.00,South,183,9.0,11.0,-999,0.00,,,0.00,,2013-03-30 21:23:00,
2013-03-30 16:30:00,54.0,-99.9,-100.00,South,181,9.0,11.0,-999,0.00,,,0.00,,2013-03-30 21:30:00,
2013-03-30 16:34:00,54.0,-99.9,-100.00,South,173,12.0,16.0,-999,0.00,,,0.00,,2013-03-30 21:34:00,
2013-03-30 16:43:00,54.0,-99.9,-100.00,South,173,12.0,16.0,-999,0.00,,,0.00,,2013-03-30 21:43:00,
2013-03-30 16:53:00,54.0,-99.9,-100.00,South,173,12.0,16.0,-999,0.00,,,0.00,,2013-03-30 21:53:00,
2013-03-30 17:03:00,54.0,-99.9,-100.00,South,181,9.0,11.0,-999,0.00,,,0.00,,2013-03-30 22:03:00,
2013-03-30 17:13:00,54.0,-99.9,-100.00,South,181,9.0,11.0,-999,0.00,,,0.00,,2013-03-30 22:13:00,
2013-03-30 17:24:00,54.0,-99.9,-100.00,South,181,9.0,11.0,-999,0.00,,,0.00,,2013-03-30 22:24:00,
2013-03-30 17:44:00,53.0,-99.9,-100.00,South,188,8.0,11.0,-999,0.00,,,0.00,,2013-03-30 22:44:00,
2013-03-30 17:54:00,53.0,-99.9,-100.00,South,188,8.0,11.0,-999,0.00,,,0.00,,2013-03-30 22:54:00,
2013-03-30 18:03:00,52.0,-99.9,-100.00,SSW,197,8.0,10.0,-999,0.00,,,0.00,,2013-03-30 23:03:00,
2013-03-30 18:13:00,52.0,-99.9,-100.00,SSW,197,8.0,10.0,-999,0.00,,,0.00,,2013-03-30 23:13:00,
2013-03-30 18:23:00,52.0,-99.9,-100.00,SSW,197,8.0,10.0,-999,0.00,,,0.00,,2013-03-30 23:23:00,
2013-03-30 18:30:00,51.0,-99.9,-100.00,SSW,193,7.0,10.0,-999,0.00,,,0.00,,2013-03-30 23:30:00,
2013-03-30 18:33:00,52.0,-99.9,-100.00,South,189,9.0,13.0,-999,0.00,,,0.00,,2013-03-30 23:33:00,
2013-03-30 18:43:00,52.0,-99.9,-100.00,South,189,9.0,13.0,-999,0.00,,,0.00,,2013-03-30 23:43:00,
2013-03-30 18:53:00,52.0,-99.9,-100.00,South,189,9.0,13.0,-999,0.00,,,0.00,,2013-03-30 23:53:00,
2013-03-30 19:03:00,51.0,-99.9,-100.00,SSW,193,7.0,10.0,-999,0.00,,,0.00,,2013-03-31 00:03:00,
2013-03-30 19:12:00,51.0,-99.9,-100.00,SSW,193,7.0,10.0,-999,0.00,,,0.00,,2013-03-31 00:12:00,
2013-03-30 19:23:00,51.0,-99.9,-100.00,SSW,193,7.0,10.0,-999,0.00,,,0.00,,2013-03-31 00:23:00,
2013-03-30 19:43:00,50.0,-99.9,-100.00,SSW,197,5.0,8.0,-999,0.00,,,0.00,,2013-03-31 00:43:00,
2013-03-30 19:53:00,50.0,-99.9,-100.00,SSW,197,5.0,8.0,-999,0.00,,,0.00,,2013-03-31 00:53:00,
2013-03-30 20:02:00,49.0,-99.9,-100.00,SSW,202,6.0,7.0,-999,0.00,,,0.00,,2013-03-31 01:02:00,
2013-03-30 20:12:00,49.0,-99.9,-100.00,SSW,202,6.0,7.0,-999,0.00,,,0.00,,2013-03-31 01:12:00,
2013-03-30 20:23:00,49.0,-99.9,-100.00,SSW,202,6.0,7.0,-999,0.00,,,0.00,,2013-03-31 01:23:00,
2013-03-30 20:32:00,48.0,-99.9,-100.00,SSW,207,6.0,8.0,-999,0.00,,,0.00,,2013-03-31 01:32:00,
2013-03-30 20:43:00,48.0,-99.9,-100.00,SSW,207,6.0,8.0,-999,0.00,,,0.00,,2013-03-31 01:43:00,
2013-03-30 20:53:00,48.0,-99.9,-100.00,SSW,207,6.0,8.0,-999,0.00,,,0.00,,2013-03-31 01:53:00,
2013-03-30 21:02:00,48.0,-99.9,-100.00,SSW,198,4.0,5.0,-999,0.00,,,0.00,,2013-03-31 02:02:00,
2013-03-30 21:13:00,48.0,-99.9,-100.00,SSW,198,4.0,5.0,-999,0.00,,,0.00,,2013-03-31 02:13:00,
2013-03-30 21:22:00,48.0,-99.9,-100.00,SSW,198,4.0,5.0,-999,0.00,,,0.00,,2013-03-31 02:22:00,
2013-03-30 21:33:00,48.0,-99.9,-100.00,SSW,200,4.0,5.0,-999,0.00,,,0.00,,2013-03-31 02:33:00,
2013-03-30 21:43:00,48.0,-99.9,-100.00,SSW,200,4.0,5.0,-999,0.00,,,0.00,,2013-03-31 02:43:00,
2013-03-30 21:53:00,48.0,-99.9,-100.00,SSW,200,4.0,5.0,-999,0.00,,,0.00,,2013-03-31 02:53:00,
2013-03-30 22:02:00,47.0,-99.9,-100.00,SSW,212,4.0,5.0,-999,0.00,,,0.00,,2013-03-31 03:02:00,
2013-03-30 22:13:00,47.0,-99.9,-100.00,SSW,212,4.0,5.0,-999,0.00,,,0.00,,2013-03-31 03:13:00,
2013-03-30 22:22:00,47.0,-99.9,-100.00,SSW,212,4.0,5.0,-999,0.00,,,0.00,,2013-03-31 03:22:00,
2013-03-30 22:33:00,47.0,-99.9,-100.00,SSW,203,4.0,7.0,-999,0.00,,,0.00,,2013-03-31 03:33:00,
2013-03-30 22:44:00,47.0,-99.9,-100.00,SSW,203,4.0,7.0,-999,0.00,,,0.00,,2013-03-31 03:44:00,
2013-03-30 22:54:00,47.0,-99.9,-100.00,SSW,203,4.0,7.0,-999,0.00,,,0.00,,2013-03-31 03:54:00,
2013-03-30 23:03:00,47.0,-99.9,-100.00,SSW,203,4.0,5.0,-999,0.00,,,0.00,,2013-03-31 04:03:00,
2013-03-30 23:13:00,47.0,-99.9,-100.00,SSW,203,4.0,5.0,-999,0.00,,,0.00,,2013-03-31 04:13:00,
2013-03-30 23:23:00,47.0,-99.9,-100.00,SSW,203,4.0,5.0,-999,0.00,,,0.00,,2013-03-31 04:23:00,
2013-03-30 23:33:00,47.0,-99.9,-100.00,SW,219,4.0,6.0,-999,0.00,,,0.00,,2013-03-31 04:33:00,
2013-03-30 23:43:00,47.0,-99.9,-100.00,SW,219,4.0,6.0,-999,0.00,,,0.00,,2013-03-31 04:43:00,
2013-03-30 23:53:00,47.0,-99.9,-100.00,SW,219,4.0,6.0,-999,0.00,,,0.00,,2013-03-31 04:53:00,